Time;durP1;ratioP1;P1;durP2;ratioP2;P2;SDS_P1;SDS_P2;PMS_P1;PMS_P2;Temp;Humidity;BMP_temperature;BMP_pressure;BME280_temperature;BME280_humidity;BME280_pressure;Samples;Min_cycle;Max_cycle;Signal;HPM_P1;HPM_P2
2022/09/08 00:00:29;;;;;;;5.80;2.50;;;;;;;15.12;94.46;101096.44;4994459;28;20272;-47
2022/09/08 00:02:55;;;;;;;4.65;2.50;;;;;;;15.04;94.43;101086.06;4995671;28;20213;-47
2022/09/08 00:05:24;;;;;;;3.08;2.25;;;;;;;15.06;94.73;101085.97;4998273;28;20587;-46
2022/09/08 00:07:53;;;;;;;2.05;1.80;;;;;;;15.20;94.66;101077.16;4998523;28;20256;-49
2022/09/08 00:10:19;;;;;;;3.33;2.33;;;;;;;15.17;94.37;101080.00;4999118;28;20669;-45
2022/09/08 00:12:46;;;;;;;7.38;2.70;;;;;;;15.09;94.09;101076.84;4995754;28;20185;-48
2022/09/08 00:15:12;;;;;;;4.40;2.50;;;;;;;14.99;94.52;101065.66;4995070;28;20236;-46
2022/09/08 00:17:38;;;;;;;3.00;2.15;;;;;;;15.12;94.45;101064.06;4995502;28;20200;-47
2022/09/08 00:20:06;;;;;;;9.38;2.38;;;;;;;15.01;94.31;101070.00;4997709;28;20219;-48
2022/09/08 00:22:31;;;;;;;6.03;2.15;;;;;;;14.87;95.27;101072.59;4994568;28;20189;-46
2022/09/08 00:24:57;;;;;;;4.20;2.47;;;;;;;14.91;95.62;101073.28;4993443;28;20173;-48
2022/09/08 00:27:22;;;;;;;8.02;2.63;;;;;;;14.90;95.82;101067.03;5005286;28;20225;-47
2022/09/08 00:29:48;;;;;;;6.35;2.65;;;;;;;14.93;96.21;101074.94;4997462;28;20197;-46
2022/09/08 00:32:13;;;;;;;5.47;2.50;;;;;;;14.89;96.18;101072.47;4999268;28;20220;-47
2022/09/08 00:34:38;;;;;;;7.93;2.75;;;;;;;14.86;96.42;101080.75;4998107;28;20184;-46
2022/09/08 00:37:04;;;;;;;6.82;2.78;;;;;;;14.70;96.84;101070.75;4996872;28;20207;-49
2022/09/08 00:39:29;;;;;;;5.28;2.80;;;;;;;14.67;97.58;101070.03;4995012;28;20224;-49
2022/09/08 00:41:56;;;;;;;4.75;2.63;;;;;;;14.66;98.11;101066.47;4995298;28;20682;-49
2022/09/08 00:44:54;;;;;;;4.50;2.80;;;;;;;14.58;98.60;101071.38;4998199;28;20192;-47
2022/09/08 00:47:27;;;;;;;6.10;2.67;;;;;;;14.52;99.21;101072.53;4960836;28;20236;-48
2022/09/08 00:50:20;;;;;;;5.75;2.40;;;;;;;14.56;99.88;101062.50;4992929;28;20197;-50
2022/09/08 00:52:53;;;;;;;8.85;2.97;;;;;;;14.49;100.00;101064.59;4995461;28;20185;-47
2022/09/08 00:55:23;;;;;;;6.75;3.00;;;;;;;14.52;100.00;101074.34;4997694;28;20193;-48
2022/09/08 00:57:49;;;;;;;4.38;2.17;;;;;;;14.50;100.00;101078.97;4995723;28;20543;-49
2022/09/08 01:00:16;;;;;;;5.38;2.65;;;;;;;14.49;100.00;101072.69;4997821;28;20643;-47
2022/09/08 01:02:44;;;;;;;5.65;2.53;;;;;;;14.47;100.00;101066.50;4997207;28;20552;-48
2022/09/08 01:05:14;;;;;;;5.95;2.47;;;;;;;14.38;100.00;101067.84;4993715;28;20536;-49
2022/09/08 01:12:43;;;;;;;4.95;2.75;;;;;;;14.35;100.00;101069.81;5003961;28;20219;-47
2022/09/08 01:14:09;;;;;;;9.90;2.53;;;;;;;14.28;100.00;101066.56;4995571;28;20200;-46
2022/09/08 01:16:40;;;;;;;8.43;2.75;;;;;;;14.22;100.00;101062.34;4998701;28;20308;-47
2022/09/08 01:19:24;;;;;;;6.38;2.67;;;;;;;14.19;100.00;101067.00;4999558;28;20645;-47
2022/09/08 01:22:11;;;;;;;10.55;3.00;;;;;;;14.09;100.00;101061.22;5001418;28;20212;-48
2022/09/08 01:25:09;;;;;;;4.70;2.50;;;;;;;14.16;100.00;101054.56;5007883;28;20187;-46
2022/09/08 01:27:37;;;;;;;5.07;2.55;;;;;;;14.18;100.00;101047.28;5000807;28;20312;-48
2022/09/08 01:30:08;;;;;;;5.03;2.80;;;;;;;14.21;100.00;101041.75;4997631;28;20231;-49
2022/09/08 01:32:38;;;;;;;6.60;2.60;;;;;;;14.14;100.00;101044.81;4992650;28;20656;-46
2022/09/08 01:35:06;;;;;;;8.25;2.92;;;;;;;14.05;100.00;101050.66;5004893;28;20188;-47
2022/09/08 01:37:31;;;;;;;6.28;2.92;;;;;;;14.10;100.00;101043.22;4997741;28;20296;-47
2022/09/08 01:39:57;;;;;;;5.13;2.65;;;;;;;14.11;100.00;101048.53;5000191;28;20421;-47
2022/09/08 01:42:23;;;;;;;8.68;2.85;;;;;;;13.97;100.00;101035.75;4998877;28;20616;-46
2022/09/08 01:44:49;;;;;;;5.03;2.63;;;;;;;14.04;100.00;101035.44;4999604;28;20272;-46
2022/09/08 01:47:14;;;;;;;5.32;2.53;;;;;;;13.98;100.00;101028.53;5002332;28;20312;-47
2022/09/08 01:49:40;;;;;;;5.60;2.53;;;;;;;13.98;100.00;101034.78;5001912;28;20185;-46
2022/09/08 01:52:06;;;;;;;6.18;2.95;;;;;;;13.92;100.00;101028.84;5000057;28;20188;-46
2022/09/08 01:54:32;;;;;;;4.40;2.42;;;;;;;13.97;100.00;101026.78;4999303;28;20185;-47
2022/09/08 01:56:57;;;;;;;5.20;2.92;;;;;;;13.96;100.00;101025.91;4998298;28;20185;-50
2022/09/08 01:59:23;;;;;;;6.80;2.95;;;;;;;13.96;100.00;101023.22;5001347;28;20621;-47
2022/09/08 02:01:49;;;;;;;4.72;2.72;;;;;;;13.94;100.00;101022.41;4997523;28;20185;-48
2022/09/08 02:04:15;;;;;;;7.07;2.85;;;;;;;13.99;100.00;101022.19;4995031;28;20189;-47
2022/09/08 02:06:41;;;;;;;6.28;2.63;;;;;;;13.95;100.00;101016.09;4997215;28;20585;-48
2022/09/08 02:09:06;;;;;;;5.55;2.63;;;;;;;13.98;100.00;101015.94;4998984;28;20256;-49
2022/09/08 02:11:32;;;;;;;5.88;2.65;;;;;;;13.98;100.00;101013.25;5000915;28;20189;-47
2022/09/08 02:13:58;;;;;;;9.43;2.95;;;;;;;14.05;100.00;101018.31;5007877;28;20212;-46
2022/09/08 02:16:24;;;;;;;7.97;2.70;;;;;;;14.15;100.00;101006.16;5001420;28;20698;-47
2022/09/08 02:18:52;;;;;;;7.53;2.65;;;;;;;14.14;100.00;100997.16;4997659;28;20216;-46
2022/09/08 02:21:19;;;;;;;6.70;2.83;;;;;;;14.17;100.00;101004.25;5008039;28;20181;-47
2022/09/08 02:23:47;;;;;;;7.72;2.67;;;;;;;14.12;100.00;101006.28;4993538;28;20192;-49
2022/09/08 02:26:16;;;;;;;4.55;2.65;;;;;;;14.14;100.00;100999.00;4993491;28;20217;-50
2022/09/08 02:28:42;;;;;;;7.00;2.40;;;;;;;14.12;100.00;100996.38;5002156;28;20189;-47
2022/09/08 02:31:07;;;;;;;7.32;2.80;;;;;;;14.12;100.00;100996.38;4996386;28;20185;-47
2022/09/08 02:33:33;;;;;;;3.83;2.30;;;;;;;14.19;100.00;100995.13;4997222;28;20244;-50
2022/09/08 02:35:59;;;;;;;4.53;2.47;;;;;;;14.20;100.00;100985.22;5001210;28;20177;-49
2022/09/08 02:38:25;;;;;;;6.32;2.70;;;;;;;14.15;100.00;100985.47;4999900;28;20186;-48
2022/09/08 02:40:51;;;;;;;9.20;2.78;;;;;;;14.21;100.00;100984.25;5001086;28;20189;-48
2022/09/08 02:43:17;;;;;;;9.43;2.58;;;;;;;14.16;100.00;100978.25;4999087;28;20193;-47
2022/09/08 02:45:42;;;;;;;4.30;2.30;;;;;;;14.12;100.00;100973.94;4997796;28;20209;-47
2022/09/08 02:48:08;;;;;;;5.50;2.60;;;;;;;14.25;100.00;100977.78;4994618;28;20717;-49
2022/09/08 02:50:34;;;;;;;5.72;2.55;;;;;;;14.25;100.00;100985.00;4996207;28;20177;-49
2022/09/08 02:52:59;;;;;;;6.15;2.60;;;;;;;14.15;100.00;101004.31;4992998;28;20261;-48
2022/09/08 02:55:25;;;;;;;7.70;2.75;;;;;;;14.18;100.00;100992.50;4994559;28;20264;-50
2022/09/08 02:57:51;;;;;;;5.68;2.65;;;;;;;14.15;100.00;100995.38;4997902;28;20213;-48
2022/09/08 03:00:19;;;;;;;3.90;2.38;;;;;;;14.21;100.00;100997.72;4998954;28;20260;-48
2022/09/08 03:02:45;;;;;;;6.45;2.67;;;;;;;14.19;100.00;100997.84;5001131;28;20737;-48
2022/09/08 03:05:11;;;;;;;4.75;2.10;;;;;;;14.23;100.00;100990.44;4996945;28;20565;-48
2022/09/08 03:07:40;;;;;;;7.00;2.72;;;;;;;14.33;100.00;100978.25;4998085;28;20215;-48
2022/09/08 03:10:06;;;;;;;9.32;2.30;;;;;;;14.29;99.50;100967.72;4996614;28;20207;-47
2022/09/08 03:12:33;;;;;;;5.30;2.33;;;;;;;14.35;99.34;100976.34;4994371;28;20232;-48
2022/09/08 03:14:59;;;;;;;5.78;2.35;;;;;;;14.36;99.07;100966.44;4996024;28;20188;-47
2022/09/08 03:17:25;;;;;;;4.20;2.38;;;;;;;14.29;99.23;100965.88;4995886;28;20292;-48
2022/09/08 03:19:54;;;;;;;6.97;2.28;;;;;;;14.39;98.89;100966.28;4994280;28;20185;-48
2022/09/08 03:22:19;;;;;;;6.80;2.42;;;;;;;14.27;99.18;100969.63;4997989;28;20196;-47
2022/09/08 03:24:45;;;;;;;6.57;2.55;;;;;;;14.21;99.59;100969.00;4996946;28;20177;-46
2022/09/08 03:27:10;;;;;;;6.65;2.22;;;;;;;14.20;99.84;100972.63;4999628;28;20225;-48
2022/09/08 03:29:35;;;;;;;8.82;2.90;;;;;;;14.13;100.00;100975.72;4999642;28;20192;-49
2022/09/08 03:32:01;;;;;;;6.10;2.47;;;;;;;14.18;100.00;100973.66;4999236;28;20185;-48
2022/09/08 03:34:27;;;;;;;5.05;2.63;;;;;;;14.12;100.00;100957.78;4996110;28;20641;-47
2022/09/08 03:36:53;;;;;;;5.35;2.30;;;;;;;14.12;100.00;100953.25;4994195;28;20742;-50
2022/09/08 03:39:20;;;;;;;8.43;2.67;;;;;;;14.08;100.00;100959.78;4993304;28;20184;-49
2022/09/08 03:41:45;;;;;;;9.00;2.22;;;;;;;14.15;100.00;100954.97;5000907;28;20168;-47
2022/09/08 03:44:11;;;;;;;3.80;2.35;;;;;;;14.14;100.00;100955.88;4992937;28;20287;-47
2022/09/08 03:46:36;;;;;;;5.40;2.42;;;;;;;14.11;100.00;100965.00;4994566;28;20719;-48
2022/09/08 03:49:02;;;;;;;4.40;2.05;;;;;;;14.13;100.00;100959.56;4999911;28;20258;-48
2022/09/08 03:51:28;;;;;;;6.13;2.92;;;;;;;14.14;100.00;100954.06;4999348;28;20173;-47
2022/09/08 03:54:47;;;;;;;6.60;2.53;;;;;;;14.17;100.00;100956.63;4998319;28;20570;-47
2022/09/08 03:56:51;;;;;;;4.13;2.70;;;;;;;14.14;100.00;100951.38;4998571;28;20295;-48
2022/09/08 03:59:16;;;;;;;4.25;2.25;;;;;;;14.15;100.00;100955.81;4997640;28;20189;-48
2022/09/08 04:01:42;;;;;;;6.30;2.80;;;;;;;14.12;100.00;100968.56;4994723;28;20630;-47
2022/09/08 04:04:07;;;;;;;3.78;2.13;;;;;;;14.14;100.00;100966.66;4993201;28;20619;-47
2022/09/08 04:06:34;;;;;;;6.38;2.42;;;;;;;14.09;100.00;100953.44;4999729;28;20230;-48
2022/09/08 04:09:00;;;;;;;4.55;2.50;;;;;;;14.07;100.00;100962.56;4995669;28;20571;-50
2022/09/08 04:11:25;;;;;;;5.05;2.70;;;;;;;14.13;100.00;100965.81;4993874;28;20254;-50
2022/09/08 04:13:51;;;;;;;6.82;2.67;;;;;;;14.09;100.00;100974.13;4995038;28;20236;-48
2022/09/08 04:16:17;;;;;;;3.75;2.20;;;;;;;14.11;100.00;100974.91;4999537;28;20200;-48
2022/09/08 04:18:44;;;;;;;5.47;2.10;;;;;;;14.09;100.00;100984.91;4997839;28;20287;-47
2022/09/08 04:21:10;;;;;;;4.75;2.80;;;;;;;14.12;100.00;100971.25;4999815;28;20273;-48
2022/09/08 04:23:37;;;;;;;7.50;2.70;;;;;;;14.13;100.00;100957.72;4995602;28;20185;-47
2022/09/08 04:26:11;;;;;;;7.28;2.58;;;;;;;14.21;100.00;100960.91;4996329;28;20201;-48
2022/09/08 04:28:36;;;;;;;5.65;2.25;;;;;;;14.22;100.00;100973.41;4992835;28;20232;-47
2022/09/08 04:31:13;;;;;;;6.38;2.28;;;;;;;14.21;99.73;100965.41;5000698;28;20219;-47
2022/09/08 04:33:38;;;;;;;3.58;2.25;;;;;;;14.18;99.38;100962.88;5005490;28;20558;-47
2022/09/08 04:36:08;;;;;;;10.18;2.67;;;;;;;14.20;98.87;100969.06;4992462;28;20189;-48
2022/09/08 04:38:34;;;;;;;3.50;2.40;;;;;;;14.22;98.67;100967.16;4994385;28;20527;-49
2022/09/08 04:41:07;;;;;;;5.90;2.20;;;;;;;14.37;98.12;100968.19;4997896;28;20296;-49
2022/09/08 04:43:33;;;;;;;9.00;2.70;;;;;;;14.34;97.86;100953.06;4998039;28;20185;-49
2022/09/08 04:46:08;;;;;;;6.05;2.30;;;;;;;14.42;97.08;100952.66;4998044;28;20223;-48
2022/09/08 04:48:35;;;;;;;5.50;3.15;;;;;;;14.42;96.64;100949.94;4994313;28;20196;-48
2022/09/08 04:51:02;;;;;;;3.25;2.42;;;;;;;14.38;96.26;100954.63;4995714;28;20632;-48
2022/09/08 04:53:29;;;;;;;5.78;2.83;;;;;;;14.40;96.34;100958.09;4994598;28;20213;-47
2022/09/08 04:55:55;;;;;;;5.25;2.38;;;;;;;14.46;95.92;100956.06;4999635;28;20181;-48
2022/09/08 04:58:21;;;;;;;6.65;2.28;;;;;;;14.50;95.78;100944.16;4996788;28;20402;-47
2022/09/08 05:00:50;;;;;;;4.72;2.20;;;;;;;14.39;95.31;100959.06;4992956;28;20185;-47
2022/09/08 05:03:16;;;;;;;4.03;2.35;;;;;;;14.40;95.05;100950.03;4993816;28;20229;-48
2022/09/08 05:05:42;;;;;;;4.65;2.45;;;;;;;14.37;94.84;100955.59;4998434;28;20204;-48
2022/09/08 05:08:07;;;;;;;5.00;2.60;;;;;;;14.43;95.04;100955.28;4996529;28;20201;-48
2022/09/08 05:10:34;;;;;;;3.47;2.15;;;;;;;14.40;94.77;100952.72;4999275;28;20260;-48
2022/09/08 05:13:00;;;;;;;6.47;2.47;;;;;;;14.38;94.47;100946.53;4996443;28;20189;-49
2022/09/08 05:15:26;;;;;;;5.63;2.03;;;;;;;14.41;94.32;100949.09;4993760;28;20244;-47
2022/09/08 05:17:53;;;;;;;6.38;2.20;;;;;;;14.46;93.73;100948.84;4993005;28;20308;-48
2022/09/08 05:20:18;;;;;;;4.05;2.55;;;;;;;14.50;93.40;100942.34;4999044;28;20276;-48
2022/09/08 05:22:44;;;;;;;4.78;2.40;;;;;;;14.48;92.99;100948.78;4999731;28;20280;-47
2022/09/08 05:25:10;;;;;;;4.50;2.30;;;;;;;14.56;92.63;100938.47;4997619;28;20185;-47
2022/09/08 05:27:35;;;;;;;7.22;2.70;;;;;;;14.63;92.01;100926.41;4994637;28;20562;-49
2022/09/08 05:30:01;;;;;;;4.05;2.38;;;;;;;14.57;91.59;100932.13;5004200;28;20193;-48
2022/09/08 05:32:27;;;;;;;6.70;2.45;;;;;;;14.65;91.40;100924.50;4995129;28;20186;-46
2022/09/08 05:34:52;;;;;;;3.50;2.10;;;;;;;14.63;91.25;100929.97;4998178;28;20207;-46
2022/09/08 05:37:18;;;;;;;6.47;2.60;;;;;;;14.66;91.04;100925.38;4997037;28;20294;-47
2022/09/08 05:39:46;;;;;;;2.85;2.15;;;;;;;14.70;90.70;100930.53;4996284;28;20275;-45
2022/09/08 05:42:12;;;;;;;4.32;2.00;;;;;;;14.82;89.85;100928.97;4994959;28;20215;-46
2022/09/08 05:44:38;;;;;;;8.15;2.33;;;;;;;14.81;89.26;100922.72;4994751;28;20235;-49
2022/09/08 05:47:04;;;;;;;4.68;2.65;;;;;;;14.85;88.64;100923.44;4997220;28;20674;-47
2022/09/08 05:49:29;;;;;;;6.78;2.38;;;;;;;14.79;88.38;100921.06;5000195;28;20189;-47
2022/09/08 05:51:55;;;;;;;5.78;2.50;;;;;;;14.88;88.16;100923.25;4995617;28;20184;-47
2022/09/08 05:54:24;;;;;;;5.88;2.30;;;;;;;14.84;88.02;100922.53;4997895;28;20550;-45
2022/09/08 05:56:50;;;;;;;4.88;1.98;;;;;;;15.04;87.17;100902.56;4998764;28;20242;-48
2022/09/08 05:59:17;;;;;;;4.20;2.15;;;;;;;15.03;86.61;100908.03;5002845;28;20267;-47
2022/09/08 06:01:43;;;;;;;4.20;2.10;;;;;;;15.28;85.91;100903.97;5001832;28;20271;-50
2022/09/08 06:04:09;;;;;;;5.05;2.53;;;;;;;15.37;84.91;100898.03;4997861;28;20225;-47
2022/09/08 06:06:35;;;;;;;5.30;2.30;;;;;;;15.44;84.34;100899.44;4997835;28;20223;-48
2022/09/08 06:09:03;;;;;;;4.60;2.28;;;;;;;15.50;83.92;100892.81;4992319;28;20660;-47
2022/09/08 06:11:31;;;;;;;5.35;1.83;;;;;;;15.49;82.79;100891.06;5002805;28;20196;-48
2022/09/08 06:13:57;;;;;;;2.97;2.00;;;;;;;15.48;82.43;100883.91;5000652;28;20182;-47
2022/09/08 06:16:23;;;;;;;8.52;2.60;;;;;;;15.40;82.47;100892.47;4998457;28;20203;-45
2022/09/08 06:18:50;;;;;;;5.43;2.60;;;;;;;15.54;82.18;100889.81;4999932;28;20284;-46
2022/09/08 06:21:23;;;;;;;6.93;2.25;;;;;;;15.57;82.32;100897.78;4999645;28;20191;-48
2022/09/08 06:23:50;;;;;;;4.30;2.20;;;;;;;16.09;80.81;100901.06;5000100;28;20313;-48
2022/09/08 06:26:31;;;;;;;3.95;1.92;;;;;;;16.45;78.83;100898.84;5000080;28;20209;-49
2022/09/08 06:29:10;;;;;;;8.50;2.20;;;;;;;16.54;77.75;100905.50;4998664;28;20189;-46
2022/09/08 06:31:44;;;;;;;6.40;2.28;;;;;;;16.53;77.59;100895.69;4997761;28;20243;-45
2022/09/08 06:34:23;;;;;;;6.22;1.95;;;;;;;16.45;78.07;100889.84;4999151;28;20185;-48
2022/09/08 06:36:52;;;;;;;8.32;2.08;;;;;;;16.51;78.49;100883.19;5002813;28;20209;-48
2022/09/08 06:39:48;;;;;;;4.47;1.92;;;;;;;16.67;77.88;100892.97;4999429;28;20196;-48
2022/09/08 06:42:19;;;;;;;7.28;2.00;;;;;;;16.59;77.96;100889.84;4977564;28;20280;-47
2022/09/08 06:44:47;;;;;;;8.77;2.33;;;;;;;16.33;78.04;100894.16;4998837;28;20193;-47
2022/09/08 06:47:18;;;;;;;9.38;2.33;;;;;;;16.56;78.05;100898.19;5002309;28;20263;-48
2022/09/08 06:49:44;;;;;;;4.30;1.88;;;;;;;16.43;78.30;100895.34;5000475;28;20208;-47
2022/09/08 06:52:32;;;;;;;5.55;2.50;;;;;;;16.48;78.11;100893.22;4999117;28;20185;-48
2022/09/08 06:55:27;;;;;;;12.90;2.72;;;;;;;16.36;78.58;100888.59;4998389;28;20247;-46
2022/09/08 06:58:31;;;;;;;7.78;2.40;;;;;;;16.42;79.40;100880.09;4998758;28;20271;-47
2022/09/08 07:01:29;;;;;;;10.63;2.30;;;;;;;16.47;79.69;100885.22;4997597;28;20572;-48
2022/09/08 07:04:27;;;;;;;5.05;2.30;;;;;;;16.48;79.39;100892.38;4997745;28;20185;-45
2022/09/08 07:06:57;;;;;;;8.25;2.80;;;;;;;16.61;78.91;100895.19;4986086;28;20259;-43
2022/09/08 07:09:32;;;;;;;6.00;2.33;;;;;;;16.54;79.06;100896.53;4994987;28;20200;-43
2022/09/08 07:12:10;;;;;;;6.15;2.47;;;;;;;16.43;78.88;100898.06;4999930;28;20203;-45
2022/09/08 07:14:54;;;;;;;4.75;2.53;;;;;;;16.37;79.52;100900.28;4963277;28;20184;-44
2022/09/08 07:17:40;;;;;;;8.18;2.92;;;;;;;16.19;79.38;100907.69;5000292;28;20291;-45
2022/09/08 07:20:10;;;;;;;6.53;2.70;;;;;;;16.30;78.80;100913.28;4998429;28;20624;-44
2022/09/08 07:22:45;;;;;;;7.82;3.10;;;;;;;16.24;79.01;100902.84;4998461;28;20252;-43
2022/09/08 07:25:31;;;;;;;5.57;3.20;;;;;;;16.31;78.59;100901.53;5001612;28;20648;-42
2022/09/08 07:28:03;;;;;;;10.82;3.30;;;;;;;16.18;78.75;100892.41;5002396;28;20241;-44
2022/09/08 07:30:30;;;;;;;4.05;2.15;;;;;;;16.29;79.01;100892.66;5000985;28;20819;-45
2022/09/08 07:33:08;;;;;;;5.68;1.90;;;;;;;16.30;78.30;100880.84;4993710;28;20173;-44
2022/09/08 07:35:44;;;;;;;6.97;3.05;;;;;;;16.36;77.75;100883.19;4994604;28;20193;-45
2022/09/08 07:38:15;;;;;;;5.50;2.22;;;;;;;16.24;78.29;100873.13;4996781;28;20236;-43
2022/09/08 07:40:48;;;;;;;7.40;2.47;;;;;;;16.22;78.32;100877.75;4999805;28;20188;-45
2022/09/08 07:43:15;;;;;;;6.65;2.33;;;;;;;16.22;78.96;100877.75;4999850;28;20189;-43
2022/09/08 07:46:07;;;;;;;5.63;2.45;;;;;;;16.42;77.47;100873.81;4999188;28;20219;-45
2022/09/08 07:48:54;;;;;;;5.53;2.35;;;;;;;16.26;77.17;100882.88;4989769;28;20201;-43
2022/09/08 07:51:19;;;;;;;4.85;2.15;;;;;;;16.19;76.59;100880.66;4996414;28;20181;-45
2022/09/08 07:53:58;;;;;;;5.65;2.00;;;;;;;16.22;76.70;100886.75;5000912;28;20674;-43
2022/09/08 07:56:26;;;;;;;4.70;2.03;;;;;;;16.28;76.33;100882.78;4995376;28;20202;-45
2022/09/08 07:59:10;;;;;;;4.60;2.08;;;;;;;16.21;76.22;100882.28;5000605;28;20189;-43
2022/09/08 08:01:59;;;;;;;7.00;2.35;;;;;;;16.22;76.00;100900.25;4999100;28;20180;-42
2022/09/08 08:04:33;;;;;;;4.95;2.25;;;;;;;16.34;75.67;100900.47;5000099;28;20240;-43
2022/09/08 08:07:07;;;;;;;7.07;1.70;;;;;;;16.39;74.79;100892.94;4995403;28;20266;-43
2022/09/08 08:09:38;;;;;;;3.83;2.08;;;;;;;16.41;74.80;100897.28;4998425;28;20240;-45
2022/09/08 08:12:23;;;;;;;5.80;2.17;;;;;;;16.27;74.59;100897.28;4994828;28;20199;-45
2022/09/08 08:15:01;;;;;;;3.67;2.10;;;;;;;16.35;75.32;100892.25;4997441;28;20260;-48
2022/09/08 08:17:39;;;;;;;9.05;2.35;;;;;;;16.44;74.41;100894.41;4999882;28;20196;-46
2022/09/08 08:20:10;;;;;;;5.60;2.03;;;;;;;16.42;74.23;100901.75;4992779;28;20196;-43
2022/09/08 08:22:56;;;;;;;6.95;1.98;;;;;;;16.24;75.25;100887.50;4996844;28;20185;-48
2022/09/08 08:25:26;;;;;;;3.97;2.08;;;;;;;16.26;75.07;100885.56;4999510;28;20244;-44
2022/09/08 08:28:14;;;;;;;5.88;2.03;;;;;;;16.16;75.69;100886.22;4995465;28;20209;-46
2022/09/08 08:31:16;;;;;;;10.13;2.70;;;;;;;16.19;76.05;100888.75;4996014;28;20823;-46
2022/09/08 08:33:45;;;;;;;5.68;2.15;;;;;;;16.25;75.70;100897.34;4996773;28;20189;-48
2022/09/08 08:36:15;;;;;;;5.30;2.28;;;;;;;16.09;76.58;100904.63;5000010;28;20597;-43
2022/09/08 08:38:48;;;;;;;9.18;2.20;;;;;;;16.04;76.97;100901.34;5004960;28;20538;-47
2022/09/08 08:41:35;;;;;;;5.38;2.15;;;;;;;16.13;76.68;100889.13;4997488;28;20536;-52
2022/09/08 08:44:21;;;;;;;4.55;2.45;;;;;;;15.97;76.98;100891.88;4994583;28;20696;-45
2022/09/08 08:47:18;;;;;;;8.00;2.83;;;;;;;16.01;76.57;100899.72;5001577;28;20223;-50
2022/09/08 08:50:21;;;;;;;4.05;2.03;;;;;;;15.88;77.44;100896.00;4978757;28;20845;-45
2022/09/08 08:53:24;;;;;;;8.25;2.20;;;;;;;16.03;77.24;100872.59;5003071;28;20199;-48
2022/09/08 08:56:14;;;;;;;5.53;2.35;;;;;;;15.95;77.30;100883.84;5006347;28;20181;-48
2022/09/08 08:58:45;;;;;;;5.32;2.22;;;;;;;16.03;77.91;100876.16;4999571;28;20173;-45
2022/09/08 09:01:42;;;;;;;4.90;2.03;;;;;;;16.10;77.68;100879.38;4997957;28;20599;-47
2022/09/08 09:04:38;;;;;;;5.00;2.50;;;;;;;16.07;77.40;100882.28;4998281;28;20644;-44
2022/09/08 09:07:32;;;;;;;4.97;2.47;;;;;;;15.97;78.22;100875.66;4991304;28;20634;-46
2022/09/08 09:10:09;;;;;;;4.15;2.10;;;;;;;16.00;78.61;100879.03;4997396;28;20207;-44
2022/09/08 09:12:47;;;;;;;5.68;2.35;;;;;;;15.92;78.76;100881.34;4994964;28;20555;-42
2022/09/08 09:15:30;;;;;;;4.22;2.28;;;;;;;15.80;79.66;100866.72;4992506;28;20183;-42
2022/09/08 09:18:02;;;;;;;5.07;2.08;;;;;;;15.83;79.92;100871.97;4994736;28;20234;-41
2022/09/08 09:20:39;;;;;;;9.02;2.50;;;;;;;15.75;80.44;100876.09;5002852;28;20585;-42
2022/09/08 09:23:25;;;;;;;3.53;2.25;;;;;;;15.78;81.12;100879.44;5004311;28;20467;-43
2022/09/08 09:25:59;;;;;;;4.05;2.40;;;;;;;15.69;81.55;100879.09;4999638;28;20207;-41
2022/09/08 09:28:44;;;;;;;8.63;2.67;;;;;;;15.67;81.76;100865.69;4997784;28;20194;-44
2022/09/08 09:31:34;;;;;;;8.63;2.90;;;;;;;15.63;82.09;100856.00;5004014;28;20199;-42
2022/09/08 09:34:23;;;;;;;5.75;2.50;;;;;;;15.58;82.71;100855.44;5001139;28;20735;-43
2022/09/08 09:36:58;;;;;;;3.00;2.10;;;;;;;15.46;83.53;100862.44;4998904;28;20704;-41
2022/09/08 09:39:23;;;;;;;6.93;2.38;;;;;;;15.51;83.79;100849.50;4998904;28;20279;-42
2022/09/08 09:42:08;;;;;;;3.08;2.05;;;;;;;15.46;84.13;100854.31;5006243;28;20279;-42
2022/09/08 09:44:55;;;;;;;7.85;2.30;;;;;;;15.29;84.96;100867.94;5004209;28;20181;-42
2022/09/08 09:47:35;;;;;;;6.45;2.83;;;;;;;14.91;87.36;100881.72;5001141;28;20224;-43
2022/09/08 09:50:31;;;;;;;5.55;2.40;;;;;;;14.56;89.99;100890.81;5001903;28;20177;-44
2022/09/08 09:53:33;;;;;;;5.80;2.40;;;;;;;14.42;93.05;100882.56;4996567;28;20181;-44
2022/09/08 09:56:32;;;;;;;9.57;3.15;;;;;;;14.11;96.32;100870.72;5000037;28;20180;-42
2022/09/08 09:59:19;;;;;;;9.13;3.40;;;;;;;13.96;99.71;100866.13;5004433;28;20281;-45
2022/09/08 10:01:59;;;;;;;10.55;3.75;;;;;;;13.88;100.00;100866.50;4997067;28;20185;-46
2022/09/08 10:04:37;;;;;;;4.85;2.95;;;;;;;13.77;100.00;100855.41;4996852;28;20172;-43
2022/09/08 10:07:08;;;;;;;10.45;3.50;;;;;;;13.72;100.00;100857.47;5002256;28;20695;-44
2022/09/08 10:09:55;;;;;;;7.65;3.53;;;;;;;13.78;100.00;100860.72;5009128;28;20574;-44
2022/09/08 10:12:50;;;;;;;5.53;3.17;;;;;;;13.91;100.00;100858.28;4995199;28;20202;-44
2022/09/08 10:15:50;;;;;;;9.35;3.50;;;;;;;13.89;100.00;100865.56;5000682;28;20200;-44
2022/09/08 10:18:34;;;;;;;5.63;3.20;;;;;;;13.98;100.00;100865.06;4999301;28;20262;-45
2022/09/08 10:21:13;;;;;;;4.78;2.97;;;;;;;14.02;100.00;100868.50;5002679;28;20734;-44
2022/09/08 10:24:03;;;;;;;5.03;3.30;;;;;;;14.09;100.00;100874.44;4999755;28;20255;-43
2022/09/08 10:27:06;;;;;;;5.57;3.30;;;;;;;14.18;100.00;100877.50;5000946;28;20235;-43
2022/09/08 10:29:34;;;;;;;7.05;3.55;;;;;;;14.28;100.00;100877.91;4998353;28;20177;-44
2022/09/08 10:32:21;;;;;;;8.38;4.20;;;;;;;14.11;100.00;100867.16;4998685;28;20196;-44
2022/09/08 10:35:37;;;;;;;10.18;3.80;;;;;;;13.99;100.00;100861.44;4999155;28;20731;-45
2022/09/08 10:38:24;;;;;;;9.52;4.00;;;;;;;13.78;100.00;100857.16;4998986;28;20298;-46
2022/09/08 10:40:58;;;;;;;9.82;3.55;;;;;;;13.87;100.00;100855.81;4997578;28;20663;-44
2022/09/08 10:43:33;;;;;;;14.10;4.10;;;;;;;13.85;100.00;100845.13;5002067;28;20232;-45
2022/09/08 10:46:33;;;;;;;8.13;3.63;;;;;;;13.97;100.00;100851.69;5002638;28;20209;-43
2022/09/08 10:49:40;;;;;;;4.78;2.95;;;;;;;13.98;100.00;100840.84;4999857;28;20554;-45
2022/09/08 10:52:31;;;;;;;6.95;3.78;;;;;;;13.91;100.00;100844.81;4914138;29;20202;-45
2022/09/08 10:55:34;;;;;;;9.95;3.85;;;;;;;14.10;100.00;100833.06;4993480;28;20688;-43
2022/09/08 10:58:09;;;;;;;5.65;3.50;;;;;;;14.11;100.00;100832.13;4998426;28;20613;-45
2022/09/08 11:00:58;;;;;;;6.63;3.17;;;;;;;14.09;100.00;100825.94;5002219;28;20663;-46
2022/09/08 11:03:27;;;;;;;6.15;3.22;;;;;;;14.12;100.00;100828.47;4998515;28;20192;-43
2022/09/08 11:06:05;;;;;;;6.82;3.30;;;;;;;14.23;100.00;100820.66;4937395;28;20305;-44
2022/09/08 11:09:05;;;;;;;4.80;3.17;;;;;;;14.07;100.00;100815.25;4978731;28;20204;-45
2022/09/08 11:11:52;;;;;;;6.28;3.40;;;;;;;14.07;100.00;100807.16;4982052;28;20177;-46
2022/09/08 11:14:51;;;;;;;7.10;3.17;;;;;;;14.10;100.00;100798.94;4977875;28;20194;-45
2022/09/08 11:17:24;;;;;;;5.85;3.40;;;;;;;14.11;100.00;100808.72;4979891;28;20688;-45
2022/09/08 11:19:55;;;;;;;6.18;3.05;;;;;;;14.26;100.00;100785.50;4979843;28;20212;-46
2022/09/08 11:22:56;;;;;;;5.47;2.80;;;;;;;14.14;100.00;100795.09;4975317;28;20177;-45
2022/09/08 11:25:41;;;;;;;4.78;2.95;;;;;;;14.21;100.00;100779.47;4947206;28;20199;-44
2022/09/08 11:28:35;;;;;;;4.90;3.15;;;;;;;14.19;100.00;100786.75;4981835;28;20202;-43
2022/09/08 11:31:18;;;;;;;4.22;2.75;;;;;;;14.24;100.00;100792.78;4975948;28;20207;-45
2022/09/08 11:34:09;;;;;;;5.45;2.80;;;;;;;14.31;100.00;100785.22;4979242;28;20177;-45
2022/09/08 11:37:05;;;;;;;5.40;3.22;;;;;;;14.30;100.00;100773.59;4978677;28;20583;-45
2022/09/08 11:39:44;;;;;;;7.13;3.58;;;;;;;14.25;100.00;100782.88;4978030;28;20189;-44
2022/09/08 11:42:34;;;;;;;5.68;3.50;;;;;;;14.22;100.00;100784.78;4975002;28;20190;-45
2022/09/08 11:45:09;;;;;;;14.07;3.75;;;;;;;14.18;100.00;100788.59;4992758;28;20641;-44
2022/09/08 11:47:57;;;;;;;8.73;3.50;;;;;;;14.23;100.00;100772.16;4978796;28;20292;-45
2022/09/08 11:50:35;;;;;;;7.88;3.65;;;;;;;14.16;100.00;100778.84;4972662;28;20387;-46
2022/09/08 11:53:24;;;;;;;7.05;3.70;;;;;;;14.19;100.00;100782.25;4981446;28;20204;-43
2022/09/08 11:56:04;;;;;;;5.93;3.90;;;;;;;14.16;100.00;100779.72;4975717;28;20194;-45
2022/09/08 11:58:44;;;;;;;9.77;3.63;;;;;;;14.21;100.00;100777.66;4978703;28;20652;-44